This is the latest recevied weather packets stored in our database for station/object G4IRX-10. If no packets are shown the sender has not sent any weather packets the latest 10 day(s).
| Time | Temp. | Humidity | Pressure | Rain* | Wind** | Luminosity | Snow |
|---|---|---|---|---|---|---|---|
| 1777387230 | 15° C | 54% | 1028.3 hPa | - | - | - | - |
| 1777386330 | 14.44° C | 54% | 1028.4 hPa | - | - | - | - |
| 1777385430 | 13.89° C | 59% | 1028.5 hPa | - | - | - | - |
| 1777384530 | 13.89° C | 60% | 1028.7 hPa | - | - | - | - |
| 1777383630 | 13.33° C | 61% | 1028.9 hPa | - | - | - | - |
| 1777382730 | 13.33° C | 63% | 1029 hPa | - | - | - | - |
| 1777381830 | 12.78° C | 63% | 1029.5 hPa | - | - | - | - |
| 1777380929 | 12.78° C | 63% | 1029.5 hPa | - | - | - | - |
| 1777380029 | 12.22° C | 61% | 1029.5 hPa | - | - | - | - |
| 1777379129 | 12.22° C | 60% | 1029.7 hPa | - | - | - | - |
| 1777378229 | 12.22° C | 60% | 1029.6 hPa | - | - | - | - |
| 1777377329 | 12.22° C | 60% | 1029.5 hPa | - | - | - | - |
| 1777376429 | 12.22° C | 60% | 1029.6 hPa | - | - | - | - |
| 1777375529 | 12.22° C | 60% | 1029.5 hPa | - | - | - | - |
| 1777374629 | 12.22° C | 61% | 1029.5 hPa | - | - | - | - |
| 1777373729 | 12.22° C | 61% | 1029.7 hPa | - | - | - | - |
| 1777372829 | 12.22° C | 62% | 1029.6 hPa | - | - | - | - |
| 1777371928 | 12.22° C | 62% | 1029.4 hPa | - | - | - | - |
| 1777371028 | 12.22° C | 61% | 1029.3 hPa | - | - | - | - |
| 1777370128 | 12.22° C | 64% | 1029.2 hPa | - | - | - | - |
| 1777369228 | 11.67° C | 65% | 1029 hPa | - | - | - | - |
| 1777368328 | 10° C | 81% | 1029.1 hPa | - | - | - | - |
| 1777326210 | 18.89° C | 38% | 1026.1 hPa | - | - | - | - |
| 1777325310 | 18.89° C | 38% | 1025.9 hPa | - | - | - | - |
| 1777324410 | 19.44° C | 38% | 1025.9 hPa | - | - | - | - |
* Rain since midnight (hover to see other rain measurements)
** Current wind speed in m/s (hover to see current wind gust speed)